Cockrell Hill, Texas
Current Conditions -  °F | °C
As of 9:53 AM on Thursday 23 Oct 2014 (Local Time) from KRBD Reporting Station
Overcast Overcast  
Wind Chill: 19°   Ceiling: 7500
Heat Index: 19°   Visibility: 10mi
Dew Point: 12°   Wind: 8mph
Humidity: 65%   Direction: 170°S
Pressure: 30.17"   Gusts: NA
Location:  32.7371°N, 96.9045°W
Report Text: KRBD 231453Z 17007KT 10SM OVC075 19/12 A3017 RMK AO2 SLP210 T01890122 53012
Loading
Personal Weather Stations






























Interactive Weather Map
Tropical Storm Tracking
New forecast layout! Learn more

10-Day Weather Forecast

Advertisements
Track Severe Weather on mobile